createdAt,value
2022-12-08T00:00:55.620Z,0.00
2022-12-08T00:01:55.738Z,0.00
2022-12-08T00:02:55.714Z,0.00
2022-12-08T00:03:55.522Z,0.00
2022-12-08T00:04:55.499Z,0.00
2022-12-08T00:05:55.469Z,0.00
2022-12-08T00:06:55.445Z,0.00
2022-12-08T00:07:55.445Z,0.00
2022-12-08T00:08:55.392Z,0.00
2022-12-08T00:09:55.366Z,0.00
2022-12-08T00:10:55.393Z,0.00
2022-12-08T00:11:55.315Z,0.00
2022-12-08T00:12:55.296Z,0.00
2022-12-08T00:13:55.265Z,0.00
2022-12-08T00:14:55.231Z,0.00
2022-12-08T00:15:55.222Z,0.00
2022-12-08T00:18:27.278Z,0.00
2022-12-08T00:19:27.230Z,0.00
2022-12-08T00:20:27.213Z,0.00
2022-12-08T00:21:27.171Z,0.00
2022-12-08T00:22:27.154Z,0.00
2022-12-08T00:23:27.196Z,0.00
2022-12-08T00:24:27.084Z,0.00
2022-12-08T00:25:27.066Z,0.00
2022-12-08T00:26:27.064Z,0.00
2022-12-08T00:27:27.015Z,0.00
2022-12-08T00:28:26.994Z,0.00
2022-12-08T00:29:27.059Z,0.00
2022-12-08T00:30:26.936Z,0.00
2022-12-08T00:31:26.949Z,0.00
2022-12-08T00:32:26.904Z,0.00
2022-12-08T00:33:26.880Z,0.00
2022-12-08T00:34:26.859Z,0.00
2022-12-08T00:35:26.833Z,0.00
2022-12-08T00:36:26.785Z,0.00
2022-12-08T00:37:26.770Z,0.00
2022-12-08T00:38:26.731Z,0.00
2022-12-08T00:39:26.721Z,0.00
2022-12-08T00:40:26.695Z,0.00
2022-12-08T00:41:26.692Z,0.00
2022-12-08T00:42:26.657Z,0.00
2022-12-08T00:43:26.618Z,0.00
2022-12-08T00:44:26.598Z,0.00
2022-12-08T00:45:26.592Z,0.00
2022-12-08T00:46:26.578Z,0.00
2022-12-08T00:47:26.513Z,0.00
2022-12-08T00:49:58.637Z,0.00
2022-12-08T00:50:58.618Z,0.00
2022-12-08T00:51:58.564Z,0.00
2022-12-08T00:52:58.562Z,0.00
2022-12-08T00:53:58.561Z,0.00
2022-12-08T00:54:58.505Z,0.00
2022-12-08T00:55:58.529Z,0.00
2022-12-08T00:56:58.442Z,0.00
2022-12-08T00:57:58.428Z,0.00
2022-12-08T00:58:58.413Z,0.00
2022-12-08T00:59:58.394Z,0.00
2022-12-08T01:00:58.429Z,0.00
2022-12-08T01:01:58.326Z,0.00
2022-12-08T01:02:58.323Z,0.00
2022-12-08T01:03:58.268Z,0.00
2022-12-08T01:04:58.233Z,0.00
2022-12-08T01:05:58.259Z,0.00
2022-12-08T01:06:58.224Z,0.00
2022-12-08T01:07:58.214Z,0.00
2022-12-08T01:08:58.168Z,0.00
2022-12-08T01:09:58.130Z,0.00
2022-12-08T01:10:58.103Z,0.00
2022-12-08T01:11:58.084Z,0.00
2022-12-08T01:12:58.049Z,0.00
2022-12-08T01:13:58.025Z,0.00
2022-12-08T01:15:02.063Z,0.00
2022-12-08T01:15:57.963Z,0.00
2022-12-08T01:16:58.010Z,0.00
2022-12-08T01:17:57.918Z,0.00
2022-12-08T01:18:57.910Z,0.00
2022-12-08T01:19:57.899Z,0.00
2022-12-08T01:20:57.829Z,0.00
2022-12-08T01:21:57.790Z,0.00
2022-12-08T01:22:57.772Z,0.00
2022-12-08T01:23:57.786Z,0.00
2022-12-08T01:24:57.715Z,0.00
2022-12-08T01:25:57.694Z,0.00
2022-12-08T01:26:57.662Z,0.00
2022-12-08T01:27:57.653Z,0.00
2022-12-08T01:28:57.610Z,0.00
2022-12-08T01:29:57.608Z,0.00
2022-12-08T01:30:57.619Z,0.00
2022-12-08T01:31:57.531Z,0.00
2022-12-08T01:32:57.537Z,0.00
2022-12-08T01:33:57.496Z,0.00
2022-12-08T01:34:57.474Z,0.00
2022-12-08T01:35:57.427Z,0.00
2022-12-08T01:36:57.417Z,0.00
2022-12-08T01:37:57.405Z,0.00
2022-12-08T01:38:57.371Z,0.00
2022-12-08T01:39:57.343Z,0.00
2022-12-08T01:40:57.299Z,0.00
2022-12-08T01:41:57.283Z,0.00
2022-12-08T01:42:57.240Z,0.00
2022-12-08T01:43:57.214Z,0.00
2022-12-08T01:44:57.186Z,0.00
2022-12-08T01:45:57.217Z,0.00
2022-12-08T01:46:57.134Z,0.00
2022-12-08T01:47:57.172Z,0.00
2022-12-08T01:48:57.125Z,0.00
2022-12-08T01:49:57.106Z,0.00
2022-12-08T01:50:57.061Z,0.00
2022-12-08T01:51:57.004Z,0.00
2022-12-08T01:52:57.004Z,0.00
2022-12-08T01:53:56.977Z,0.00
2022-12-08T01:54:56.933Z,0.00
2022-12-08T01:55:56.935Z,0.00
2022-12-08T01:56:56.888Z,0.00
2022-12-08T01:58:06.258Z,0.00
2022-12-08T01:59:50.349Z,0.00
2022-12-08T02:00:50.245Z,0.00
2022-12-08T02:02:50.301Z,0.00
2022-12-08T02:03:50.186Z,0.00
2022-12-08T02:04:50.190Z,0.00
2022-12-08T02:05:50.138Z,0.00
2022-12-08T02:06:50.094Z,0.00
2022-12-08T02:07:50.164Z,0.00
2022-12-08T02:08:50.075Z,0.00
2022-12-08T02:09:50.110Z,0.00
2022-12-08T02:10:50.009Z,0.00
2022-12-08T02:11:49.992Z,0.00
2022-12-08T02:12:49.939Z,0.00
2022-12-08T02:13:49.913Z,0.00
2022-12-08T02:14:49.954Z,0.00
2022-12-08T02:15:49.905Z,0.00
2022-12-08T02:16:49.922Z,0.00
2022-12-08T02:17:49.881Z,0.00
2022-12-08T02:19:02.110Z,0.00
2022-12-08T02:19:49.755Z,0.00
2022-12-08T02:20:49.728Z,0.00
2022-12-08T02:21:49.801Z,0.00
2022-12-08T02:22:49.710Z,0.00
2022-12-08T02:23:49.698Z,0.00
2022-12-08T02:24:49.715Z,0.00
2022-12-08T02:25:49.629Z,0.00
2022-12-08T02:26:49.596Z,0.00
2022-12-08T02:27:49.557Z,0.00
2022-12-08T02:28:49.528Z,0.00
2022-12-08T02:29:49.550Z,0.00
2022-12-08T02:30:49.511Z,0.00
2022-12-08T02:31:49.568Z,0.00
2022-12-08T02:32:49.454Z,0.00
2022-12-08T02:33:49.392Z,0.00
2022-12-08T02:34:49.400Z,0.00
2022-12-08T02:35:49.358Z,0.00
2022-12-08T02:36:49.344Z,0.00
2022-12-08T02:37:49.293Z,0.00
2022-12-08T02:38:49.334Z,0.00
2022-12-08T02:39:49.237Z,0.00
2022-12-08T02:40:49.213Z,0.00
2022-12-08T02:41:49.198Z,0.00
2022-12-08T02:42:49.240Z,0.00
2022-12-08T02:43:49.168Z,0.00
2022-12-08T02:44:49.100Z,0.00
2022-12-08T02:45:49.178Z,0.00
2022-12-08T02:46:49.123Z,0.00
2022-12-08T02:47:49.054Z,0.00
2022-12-08T02:48:49.025Z,0.00
2022-12-08T02:49:49.001Z,0.00
2022-12-08T02:50:48.945Z,0.00
2022-12-08T02:51:48.912Z,0.00
2022-12-08T02:52:48.907Z,0.00
2022-12-08T02:53:48.921Z,0.00
2022-12-08T02:54:48.831Z,0.00
2022-12-08T02:55:48.842Z,0.00
2022-12-08T02:56:48.842Z,0.00
2022-12-08T02:57:48.761Z,0.00
2022-12-08T02:58:48.757Z,0.00
2022-12-08T02:59:48.737Z,0.00
2022-12-08T03:00:48.724Z,0.00
2022-12-08T03:01:48.839Z,0.00
2022-12-08T03:02:48.750Z,0.00
2022-12-08T03:03:48.661Z,0.00
2022-12-08T03:04:48.687Z,0.00
2022-12-08T03:05:48.730Z,0.00
2022-12-08T03:06:48.527Z,0.00
2022-12-08T03:07:48.558Z,0.00
2022-12-08T03:08:48.480Z,0.00
2022-12-08T03:09:48.495Z,0.00
2022-12-08T03:10:48.553Z,0.00
2022-12-08T03:11:48.430Z,0.00
2022-12-08T03:12:48.402Z,0.00
2022-12-08T03:13:48.377Z,0.00
2022-12-08T03:14:48.341Z,0.00
2022-12-08T03:15:48.327Z,0.00
2022-12-08T03:16:48.276Z,0.00
2022-12-08T03:17:48.230Z,0.00
2022-12-08T03:18:48.317Z,0.00
2022-12-08T03:19:48.224Z,0.00
2022-12-08T03:20:48.261Z,0.00
2022-12-08T03:21:48.162Z,0.00
2022-12-08T03:22:48.227Z,0.00
2022-12-08T03:23:48.076Z,0.00
2022-12-08T03:24:48.075Z,0.00
2022-12-08T03:25:48.021Z,0.00
2022-12-08T03:26:48.082Z,0.00
2022-12-08T03:27:48.011Z,0.00
2022-12-08T03:28:47.954Z,0.00
2022-12-08T03:29:47.992Z,0.00
2022-12-08T03:30:48.053Z,0.00
2022-12-08T03:31:47.969Z,0.00
2022-12-08T03:32:48.009Z,0.00
2022-12-08T03:33:47.841Z,0.00
2022-12-08T03:34:47.821Z,0.00
2022-12-08T03:35:48.042Z,0.00
2022-12-08T03:36:47.746Z,0.00
2022-12-08T03:37:47.715Z,0.00
2022-12-08T03:38:47.690Z,0.00
2022-12-08T03:39:47.724Z,0.00
2022-12-08T03:40:47.647Z,0.00
2022-12-08T03:41:47.630Z,0.00
2022-12-08T03:42:47.683Z,0.00
2022-12-08T03:43:47.561Z,0.00
2022-12-08T03:44:47.550Z,0.00
2022-12-08T03:45:47.508Z,0.00
2022-12-08T03:46:47.485Z,0.00
2022-12-08T03:47:47.520Z,0.00
2022-12-08T03:48:47.504Z,0.00
2022-12-08T03:49:47.413Z,0.00
2022-12-08T03:50:47.390Z,0.00
2022-12-08T03:51:47.425Z,0.00
2022-12-08T03:52:47.332Z,0.00
2022-12-08T03:53:47.321Z,0.00
2022-12-08T03:54:47.284Z,0.00
2022-12-08T03:55:47.245Z,0.00
2022-12-08T03:56:47.266Z,0.00
2022-12-08T03:57:47.200Z,0.00
2022-12-08T03:58:47.179Z,0.00
2022-12-08T03:59:47.161Z,0.00
2022-12-08T04:00:47.188Z,0.00
2022-12-08T04:01:47.168Z,0.00
2022-12-08T04:02:47.106Z,0.00
2022-12-08T04:03:47.056Z,0.00
2022-12-08T04:04:47.053Z,0.00
2022-12-08T04:05:46.985Z,0.00
2022-12-08T04:06:46.991Z,0.00
2022-12-08T04:07:46.990Z,0.00
2022-12-08T04:08:46.925Z,0.00
2022-12-08T04:09:46.921Z,0.00
2022-12-08T04:10:46.881Z,0.00
2022-12-08T04:11:46.870Z,0.00
2022-12-08T04:12:46.857Z,0.00
2022-12-08T04:13:46.813Z,0.00
2022-12-08T04:14:46.872Z,0.00
2022-12-08T04:15:46.753Z,0.00
2022-12-08T04:16:46.742Z,0.00
2022-12-08T04:17:46.687Z,0.00
2022-12-08T04:18:46.741Z,0.00
2022-12-08T04:19:46.660Z,0.00
2022-12-08T04:20:46.604Z,0.00
2022-12-08T04:21:46.585Z,0.00
2022-12-08T04:22:46.557Z,0.00
2022-12-08T04:23:46.648Z,0.00
2022-12-08T04:24:46.493Z,0.00
2022-12-08T04:25:46.481Z,0.00
2022-12-08T04:26:46.486Z,0.00
2022-12-08T04:27:46.443Z,0.00
2022-12-08T04:28:46.434Z,0.00
2022-12-08T04:29:46.403Z,0.00
2022-12-08T04:30:46.400Z,0.00
2022-12-08T04:31:46.470Z,0.00
2022-12-08T04:32:47.683Z,0.00
2022-12-08T04:33:46.257Z,0.00
2022-12-08T04:34:46.270Z,0.00
2022-12-08T04:35:46.201Z,0.00
2022-12-08T04:36:46.233Z,0.00
2022-12-08T04:37:46.198Z,0.00
2022-12-08T04:38:46.160Z,0.00
2022-12-08T04:39:46.121Z,0.00
2022-12-08T04:40:46.080Z,0.00
2022-12-08T04:41:46.134Z,0.00
2022-12-08T04:42:46.039Z,0.00
2022-12-08T04:43:46.092Z,0.00
2022-12-08T04:44:46.011Z,0.00
2022-12-08T04:45:45.985Z,0.00
2022-12-08T04:46:45.960Z,0.00
2022-12-08T04:47:45.880Z,0.00
2022-12-08T04:48:45.901Z,0.00
2022-12-08T04:49:45.920Z,0.00
2022-12-08T04:50:45.803Z,0.00
2022-12-08T04:51:45.799Z,0.00
2022-12-08T04:52:45.784Z,0.00
2022-12-08T04:53:46.988Z,0.00
2022-12-08T04:54:45.727Z,0.00
2022-12-08T04:55:45.716Z,0.00
2022-12-08T04:56:45.654Z,0.00
2022-12-08T04:57:45.657Z,0.00
2022-12-08T04:58:45.719Z,0.00
2022-12-08T04:59:45.584Z,0.00
2022-12-08T05:00:45.563Z,0.00
2022-12-08T05:01:45.726Z,0.00
2022-12-08T05:02:45.669Z,0.00
2022-12-08T05:03:45.484Z,0.00
2022-12-08T05:04:45.448Z,0.00
2022-12-08T05:05:45.461Z,0.00
2022-12-08T05:06:45.507Z,0.00
2022-12-08T05:07:45.481Z,0.00
2022-12-08T05:08:45.346Z,0.00
2022-12-08T05:09:45.310Z,0.00
2022-12-08T05:10:45.314Z,0.00
2022-12-08T05:11:48.878Z,0.00
2022-12-08T05:12:45.274Z,0.00
2022-12-08T05:13:45.211Z,0.00
2022-12-08T05:14:45.237Z,0.00
2022-12-08T05:15:45.154Z,0.00
2022-12-08T05:16:45.196Z,0.00
2022-12-08T05:17:45.142Z,0.00
2022-12-08T05:18:45.131Z,0.00
2022-12-08T05:19:45.092Z,0.00
2022-12-08T05:20:45.026Z,0.00
2022-12-08T05:21:44.990Z,0.00
2022-12-08T05:22:45.004Z,0.00
2022-12-08T05:23:44.943Z,0.00
2022-12-08T05:24:47.709Z,0.00
2022-12-08T05:25:44.907Z,0.00
2022-12-08T05:26:44.872Z,0.00
2022-12-08T05:27:44.841Z,0.00
2022-12-08T05:28:44.879Z,0.00
2022-12-08T05:29:44.814Z,0.00
2022-12-08T05:30:44.804Z,0.00
2022-12-08T05:31:44.924Z,0.00
2022-12-08T05:32:44.816Z,0.00
2022-12-08T05:33:44.713Z,0.00
2022-12-08T05:34:44.655Z,0.00
2022-12-08T05:35:44.747Z,0.00
2022-12-08T05:36:44.641Z,0.00
2022-12-08T05:37:44.664Z,0.00
2022-12-08T05:38:44.560Z,0.00
2022-12-08T05:39:44.549Z,0.00
2022-12-08T05:40:44.495Z,0.00
2022-12-08T05:41:44.500Z,0.00
2022-12-08T05:42:44.485Z,0.00
2022-12-08T05:43:44.487Z,0.00
2022-12-08T05:44:44.383Z,0.00
2022-12-08T05:45:44.404Z,0.00
2022-12-08T05:46:44.427Z,0.00
2022-12-08T05:47:44.319Z,0.00
2022-12-08T05:48:44.305Z,0.00
2022-12-08T05:49:44.293Z,0.00
2022-12-08T05:50:44.248Z,0.00
2022-12-08T05:51:44.236Z,0.00
2022-12-08T05:52:44.183Z,0.00
2022-12-08T05:53:44.155Z,0.00
2022-12-08T05:54:44.164Z,0.00
2022-12-08T05:55:44.112Z,0.00
2022-12-08T05:56:44.080Z,0.00
2022-12-08T05:57:44.090Z,0.00
2022-12-08T05:58:44.036Z,0.00
2022-12-08T05:59:44.066Z,0.00
2022-12-08T06:00:43.983Z,0.00
2022-12-08T06:01:44.070Z,0.00
2022-12-08T06:02:44.013Z,0.00
2022-12-08T06:03:43.899Z,0.00
2022-12-08T06:04:43.862Z,0.00
2022-12-08T06:05:43.903Z,0.00
2022-12-08T06:06:43.893Z,0.00
2022-12-08T06:07:43.935Z,0.00
2022-12-08T06:08:43.840Z,0.00
2022-12-08T06:09:43.793Z,0.00
2022-12-08T06:10:43.748Z,0.00
2022-12-08T06:11:43.818Z,0.00
2022-12-08T06:12:43.659Z,0.00
2022-12-08T06:13:43.635Z,0.00
2022-12-08T06:14:43.600Z,0.00
2022-12-08T06:15:43.658Z,0.00
2022-12-08T06:16:43.673Z,0.00
2022-12-08T06:17:43.562Z,0.00
2022-12-08T06:18:43.661Z,0.00
2022-12-08T06:19:43.487Z,0.00
2022-12-08T06:20:43.522Z,0.00
2022-12-08T06:21:43.502Z,0.00
2022-12-08T06:22:43.648Z,0.00
2022-12-08T06:23:43.398Z,0.00
2022-12-08T06:24:43.402Z,0.00
2022-12-08T06:25:43.332Z,0.00
2022-12-08T06:26:43.310Z,0.00
2022-12-08T06:27:43.322Z,0.00
2022-12-08T06:28:43.237Z,0.00
2022-12-08T06:29:43.264Z,0.00
2022-12-08T06:30:43.246Z,0.00
2022-12-08T06:31:43.276Z,0.00
2022-12-08T06:32:43.166Z,0.00
2022-12-08T06:33:43.130Z,0.00
2022-12-08T06:34:43.094Z,0.00
2022-12-08T06:35:43.070Z,0.00
2022-12-08T06:36:43.091Z,0.00
2022-12-08T06:37:43.038Z,0.00
2022-12-08T06:38:43.731Z,0.00
2022-12-08T06:39:42.993Z,0.00
2022-12-08T06:40:42.961Z,0.00
2022-12-08T06:41:42.929Z,0.00
2022-12-08T06:42:42.895Z,0.00
2022-12-08T06:43:42.872Z,0.00
2022-12-08T06:44:42.830Z,0.00
2022-12-08T06:45:42.863Z,0.00
2022-12-08T06:46:42.775Z,0.00
2022-12-08T06:47:42.852Z,0.00
2022-12-08T06:48:42.771Z,0.00
2022-12-08T06:49:42.687Z,0.00
2022-12-08T06:50:42.678Z,0.00
2022-12-08T06:51:42.650Z,0.00
2022-12-08T06:52:51.584Z,0.00
2022-12-08T06:53:42.579Z,0.00
2022-12-08T06:54:42.564Z,0.00
2022-12-08T06:55:58.252Z,0.00
2022-12-08T06:56:42.581Z,0.00
2022-12-08T06:57:42.489Z,0.00
2022-12-08T06:58:45.066Z,0.00
2022-12-08T06:59:42.449Z,0.00
2022-12-08T07:00:42.412Z,0.00
2022-12-08T07:01:42.426Z,0.00
2022-12-08T07:02:42.423Z,0.00
2022-12-08T07:03:42.356Z,0.00
2022-12-08T07:04:42.352Z,0.00
2022-12-08T07:05:42.265Z,5.63
2022-12-08T07:06:42.281Z,5.63
2022-12-08T07:07:42.294Z,5.63
2022-12-08T07:08:42.210Z,5.63
2022-12-08T07:09:42.190Z,5.63
2022-12-08T07:10:42.149Z,5.63
2022-12-08T07:11:42.150Z,5.63
2022-12-08T07:12:42.137Z,11.25
2022-12-08T07:13:42.104Z,11.25
2022-12-08T07:14:42.053Z,11.25
2022-12-08T07:15:42.047Z,11.25
2022-12-08T07:16:42.006Z,11.25
2022-12-08T07:17:41.995Z,11.25
2022-12-08T07:18:41.952Z,11.25
2022-12-08T07:19:41.908Z,11.25
2022-12-08T07:20:41.884Z,11.25
2022-12-08T07:21:41.870Z,11.25
2022-12-08T07:22:41.847Z,11.25
2022-12-08T07:23:41.804Z,16.88
2022-12-08T07:24:41.790Z,16.88
2022-12-08T07:25:41.769Z,16.88
2022-12-08T07:26:41.740Z,16.88
2022-12-08T07:27:41.775Z,16.88
2022-12-08T07:28:41.689Z,16.88
2022-12-08T07:29:41.683Z,16.88
2022-12-08T07:30:41.627Z,16.88
2022-12-08T07:31:41.609Z,22.50
2022-12-08T07:32:41.564Z,22.50
2022-12-08T07:33:41.528Z,22.50
2022-12-08T07:34:41.528Z,28.13
2022-12-08T07:35:46.315Z,33.75
2022-12-08T07:36:41.463Z,33.75
2022-12-08T07:37:41.447Z,39.38
2022-12-08T07:38:41.408Z,39.38
2022-12-08T07:39:41.388Z,39.38
2022-12-08T07:40:41.361Z,39.38
2022-12-08T07:41:41.327Z,45.00
2022-12-08T07:42:41.317Z,45.00
2022-12-08T07:43:41.282Z,45.00
2022-12-08T07:44:41.241Z,45.00
2022-12-08T07:45:41.254Z,50.63
2022-12-08T07:46:41.275Z,50.63
2022-12-08T07:47:41.203Z,50.63
2022-12-08T07:48:41.154Z,56.25
2022-12-08T07:49:41.124Z,56.25
2022-12-08T07:50:41.072Z,56.25
2022-12-08T07:51:41.095Z,61.88
2022-12-08T07:52:41.036Z,61.88
2022-12-08T07:53:42.719Z,61.88
2022-12-08T07:54:41.019Z,61.88
2022-12-08T07:55:40.975Z,67.50
2022-12-08T07:56:40.940Z,67.50
2022-12-08T07:57:40.962Z,67.50
2022-12-08T07:58:40.894Z,67.50
2022-12-08T07:59:40.895Z,67.50
2022-12-08T08:00:40.867Z,73.13
2022-12-08T08:01:42.604Z,73.13
2022-12-08T08:02:40.937Z,73.13
2022-12-08T08:03:40.769Z,73.13
2022-12-08T08:04:40.799Z,73.13
2022-12-08T08:05:40.735Z,73.13
2022-12-08T08:06:40.679Z,78.75
2022-12-08T08:07:40.686Z,84.38
2022-12-08T08:08:40.629Z,84.38
2022-12-08T08:09:40.608Z,84.38
2022-12-08T08:10:40.573Z,90.00
2022-12-08T08:11:40.579Z,90.00
2022-12-08T08:12:40.540Z,90.00
2022-12-08T08:13:40.528Z,95.63
2022-12-08T08:14:40.485Z,95.63
2022-12-08T08:15:40.535Z,95.63
2022-12-08T08:16:40.579Z,95.63
2022-12-08T08:17:40.477Z,90.00
2022-12-08T08:18:40.379Z,84.38
2022-12-08T08:19:40.319Z,84.38
2022-12-08T08:20:40.323Z,90.00
2022-12-08T08:21:47.411Z,95.63
2022-12-08T08:22:40.245Z,101.25
2022-12-08T08:23:40.241Z,112.50
2022-12-08T08:24:44.654Z,112.50
2022-12-08T08:25:40.214Z,118.13
2022-12-08T08:26:40.155Z,118.13
2022-12-08T08:27:40.129Z,118.13
2022-12-08T08:28:40.239Z,118.13
2022-12-08T08:29:40.077Z,118.13
2022-12-08T08:30:40.159Z,118.13
2022-12-08T08:31:40.107Z,118.13
2022-12-08T08:32:40.078Z,118.13
2022-12-08T08:33:39.969Z,123.75
2022-12-08T08:34:40.018Z,123.75
2022-12-08T08:35:39.985Z,135.00
2022-12-08T08:36:40.032Z,135.00
2022-12-08T08:37:43.164Z,135.00
2022-12-08T08:38:39.917Z,135.00
2022-12-08T08:39:39.817Z,135.00
2022-12-08T08:40:39.825Z,135.00
2022-12-08T08:41:39.860Z,146.25
2022-12-08T08:42:39.714Z,140.63
2022-12-08T08:43:39.728Z,140.63
2022-12-08T08:44:39.663Z,140.63
2022-12-08T08:45:39.657Z,146.25
2022-12-08T08:46:39.730Z,146.25
2022-12-08T08:47:39.663Z,146.25
2022-12-08T08:48:39.566Z,146.25
2022-12-08T08:49:39.604Z,146.25
2022-12-08T08:50:39.576Z,146.25
2022-12-08T08:51:39.502Z,146.25
2022-12-08T08:52:39.552Z,146.25
2022-12-08T08:53:39.454Z,151.88
2022-12-08T08:54:39.512Z,151.88
2022-12-08T08:55:39.403Z,157.50
2022-12-08T08:56:39.366Z,157.50
2022-12-08T08:57:39.333Z,157.50
2022-12-08T08:58:39.335Z,157.50
2022-12-08T08:59:39.310Z,157.50
2022-12-08T09:00:39.264Z,157.50
2022-12-08T09:01:39.279Z,157.50
2022-12-08T09:02:39.261Z,163.13
2022-12-08T09:03:39.188Z,163.13
2022-12-08T09:04:39.253Z,163.13
2022-12-08T09:05:39.187Z,163.13
2022-12-08T09:06:39.299Z,168.75
2022-12-08T09:07:39.156Z,168.75
2022-12-08T09:08:39.111Z,174.38
2022-12-08T09:09:39.033Z,174.38
2022-12-08T09:10:38.995Z,174.38
2022-12-08T09:11:39.017Z,174.38
2022-12-08T09:12:38.958Z,174.38
2022-12-08T09:13:38.977Z,174.38
2022-12-08T09:14:38.950Z,174.38
2022-12-08T09:15:38.960Z,174.38
2022-12-08T09:16:42.138Z,174.38
2022-12-08T09:17:38.815Z,180.00
2022-12-08T09:18:38.802Z,180.00
2022-12-08T09:19:38.810Z,180.00
2022-12-08T09:20:38.783Z,185.63
2022-12-08T09:21:38.724Z,185.63
2022-12-08T09:22:38.790Z,185.63
2022-12-08T09:23:38.694Z,185.63
2022-12-08T09:24:38.654Z,185.63
2022-12-08T09:25:38.647Z,191.25
2022-12-08T09:26:38.701Z,191.25
2022-12-08T09:28:38.596Z,185.63
2022-12-08T09:29:38.580Z,185.63
2022-12-08T09:30:38.525Z,185.63
2022-12-08T09:31:38.635Z,191.25
2022-12-08T09:32:38.464Z,191.25
2022-12-08T09:33:38.421Z,191.25
2022-12-08T09:34:38.382Z,191.25
2022-12-08T09:35:38.393Z,191.25
2022-12-08T09:36:38.362Z,196.88
2022-12-08T09:37:38.305Z,196.88
2022-12-08T09:38:38.289Z,202.50
2022-12-08T09:39:38.274Z,202.50
2022-12-08T09:40:38.256Z,208.13
2022-12-08T09:41:44.766Z,213.75
2022-12-08T09:42:38.218Z,219.38
2022-12-08T09:43:38.159Z,219.38
2022-12-08T09:44:38.133Z,225.00
2022-12-08T09:45:38.099Z,225.00
2022-12-08T09:46:38.165Z,225.00
2022-12-08T09:47:38.104Z,219.38
2022-12-08T09:48:38.092Z,219.38
2022-12-08T09:49:38.127Z,225.00
2022-12-08T09:50:37.995Z,225.00
2022-12-08T09:51:37.973Z,230.63
2022-12-08T09:52:37.959Z,236.25
2022-12-08T09:53:37.896Z,236.25
2022-12-08T09:54:37.864Z,241.88
2022-12-08T09:55:37.854Z,241.88
2022-12-08T09:56:37.867Z,241.88
2022-12-08T09:57:37.817Z,241.88
2022-12-08T09:58:37.792Z,241.88
2022-12-08T09:59:37.758Z,241.88
2022-12-08T10:00:37.716Z,241.88
2022-12-08T10:01:37.803Z,241.88
2022-12-08T10:02:37.705Z,241.88
2022-12-08T10:03:37.631Z,241.88
2022-12-08T10:04:37.670Z,241.88
2022-12-08T10:05:37.746Z,241.88
2022-12-08T10:06:38.328Z,236.25
2022-12-08T10:07:37.600Z,241.88
2022-12-08T10:08:37.517Z,241.88
2022-12-08T10:09:37.486Z,247.50
2022-12-08T10:10:37.499Z,253.13
2022-12-08T10:11:37.501Z,258.75
2022-12-08T10:12:37.430Z,258.75
2022-12-08T10:13:37.395Z,264.38
2022-12-08T10:14:37.477Z,270.00
2022-12-08T10:15:37.461Z,270.00
2022-12-08T10:16:37.446Z,270.00
2022-12-08T10:17:37.313Z,270.00
2022-12-08T10:18:37.266Z,275.63
2022-12-08T10:19:37.271Z,270.00
2022-12-08T10:20:37.227Z,270.00
2022-12-08T10:21:37.186Z,275.63
2022-12-08T10:22:42.857Z,275.63
2022-12-08T10:23:37.121Z,275.63
2022-12-08T10:24:37.109Z,281.25
2022-12-08T10:25:37.101Z,281.25
2022-12-08T10:26:37.056Z,286.88
2022-12-08T10:27:37.038Z,292.50
2022-12-08T10:28:42.956Z,298.13
2022-12-08T10:29:36.973Z,298.13
2022-12-08T10:30:36.953Z,298.13
2022-12-08T10:31:37.012Z,298.13
2022-12-08T10:32:36.899Z,298.13
2022-12-08T10:33:36.919Z,298.13
2022-12-08T10:34:36.883Z,292.50
2022-12-08T10:35:36.867Z,292.50
2022-12-08T10:36:36.823Z,286.88
2022-12-08T10:37:36.845Z,281.25
2022-12-08T10:38:36.780Z,281.25
2022-12-08T10:39:36.772Z,281.25
2022-12-08T10:40:42.141Z,275.63
2022-12-08T10:41:36.676Z,275.63
2022-12-08T10:42:36.651Z,275.63
2022-12-08T10:43:36.647Z,275.63
2022-12-08T10:44:36.628Z,281.25
2022-12-08T10:45:36.577Z,286.88
2022-12-08T10:46:36.606Z,286.88
2022-12-08T10:47:36.548Z,286.88
2022-12-08T10:48:36.521Z,286.88
2022-12-08T10:49:36.562Z,281.25
2022-12-08T10:50:36.513Z,281.25
2022-12-08T10:51:36.507Z,281.25
2022-12-08T10:52:36.413Z,275.63
2022-12-08T10:53:36.370Z,275.63
2022-12-08T10:54:36.354Z,281.25
2022-12-08T10:55:36.396Z,281.25
2022-12-08T10:56:36.488Z,286.88
2022-12-08T10:57:36.321Z,281.25
2022-12-08T10:58:36.253Z,281.25
2022-12-08T10:59:36.219Z,281.25
2022-12-08T11:00:36.338Z,281.25
2022-12-08T11:01:36.387Z,281.25
2022-12-08T11:02:36.261Z,281.25
2022-12-08T11:03:36.158Z,292.50
2022-12-08T11:04:36.111Z,298.13
2022-12-08T11:05:36.067Z,298.13
2022-12-08T11:06:36.082Z,303.75
2022-12-08T11:07:36.110Z,309.38
2022-12-08T11:08:36.103Z,309.38
2022-12-08T11:09:35.994Z,315.00
2022-12-08T11:10:35.944Z,320.63
2022-12-08T11:11:35.938Z,320.63
2022-12-08T11:12:35.942Z,326.25
2022-12-08T11:13:35.911Z,326.25
2022-12-08T11:14:35.871Z,331.88
2022-12-08T11:15:35.909Z,331.88
2022-12-08T11:16:35.843Z,337.50
2022-12-08T11:17:35.876Z,337.50
2022-12-08T11:18:35.824Z,337.50
2022-12-08T11:19:35.834Z,331.88
2022-12-08T11:20:35.733Z,331.88
2022-12-08T11:21:35.664Z,331.88
2022-12-08T11:22:35.654Z,331.88
2022-12-08T11:23:35.650Z,331.88
2022-12-08T11:24:37.607Z,337.50
2022-12-08T11:25:35.601Z,337.50
2022-12-08T11:26:35.552Z,343.13
2022-12-08T11:27:35.631Z,348.75
2022-12-08T11:28:35.491Z,348.75
2022-12-08T11:29:35.498Z,354.38
2022-12-08T11:30:35.448Z,354.38
2022-12-08T11:31:35.522Z,354.38
2022-12-08T11:32:35.403Z,360.00
2022-12-08T11:33:35.417Z,360.00
2022-12-08T11:34:35.392Z,360.00
2022-12-08T11:35:35.412Z,360.00
2022-12-08T11:36:35.307Z,365.63
2022-12-08T11:37:35.482Z,365.63
2022-12-08T11:38:35.289Z,360.00
2022-12-08T11:39:35.247Z,365.63
2022-12-08T11:40:35.216Z,360.00
2022-12-08T11:41:35.181Z,365.63
2022-12-08T11:42:35.187Z,365.63
2022-12-08T11:43:35.145Z,360.00
2022-12-08T11:44:35.111Z,354.38
2022-12-08T11:45:35.106Z,354.38
2022-12-08T11:46:35.302Z,360.00
2022-12-08T11:47:35.017Z,365.63
2022-12-08T11:48:35.020Z,365.63
2022-12-08T11:49:35.031Z,360.00
2022-12-08T11:50:34.999Z,360.00
2022-12-08T11:51:35.084Z,360.00
2022-12-08T11:52:35.214Z,360.00
2022-12-08T11:53:35.087Z,360.00
2022-12-08T11:54:34.976Z,360.00
2022-12-08T11:55:37.338Z,365.63
2022-12-08T11:56:34.891Z,365.63
2022-12-08T11:57:34.923Z,365.63
2022-12-08T11:58:34.827Z,365.63
2022-12-08T11:59:35.395Z,371.25
2022-12-08T12:00:34.783Z,376.88
2022-12-08T12:01:37.968Z,382.50
2022-12-08T12:02:34.703Z,388.13
2022-12-08T12:03:34.762Z,399.38
2022-12-08T12:04:34.635Z,410.63
2022-12-08T12:06:05.328Z,433.13
2022-12-08T12:07:34.555Z,433.13
2022-12-08T12:08:34.517Z,438.75
2022-12-08T12:09:34.477Z,444.38
2022-12-08T12:10:34.491Z,438.75
2022-12-08T12:11:34.501Z,438.75
2022-12-08T12:12:39.460Z,433.13
2022-12-08T12:13:34.387Z,444.38
2022-12-08T12:14:34.398Z,450.00
2022-12-08T12:15:34.332Z,438.75
2022-12-08T12:16:34.354Z,433.13
2022-12-08T12:17:34.288Z,416.25
2022-12-08T12:18:34.278Z,410.63
2022-12-08T12:19:34.254Z,405.00
2022-12-08T12:20:34.233Z,410.63
2022-12-08T12:21:34.214Z,410.63
2022-12-08T12:22:34.176Z,405.00
2022-12-08T12:23:34.164Z,393.75
2022-12-08T12:24:36.027Z,376.88
2022-12-08T12:25:34.083Z,371.25
2022-12-08T12:26:34.072Z,393.75
2022-12-08T12:27:34.075Z,376.88
2022-12-08T12:28:34.021Z,365.63
2022-12-08T12:29:33.992Z,365.63
2022-12-08T12:30:34.009Z,360.00
2022-12-08T12:31:33.945Z,365.63
2022-12-08T12:32:33.932Z,382.50
2022-12-08T12:33:33.953Z,376.88
2022-12-08T12:34:33.874Z,382.50
2022-12-08T12:35:33.846Z,382.50
2022-12-08T12:36:33.845Z,376.88
2022-12-08T12:37:33.809Z,371.25
2022-12-08T12:38:33.772Z,360.00
2022-12-08T12:39:33.755Z,360.00
2022-12-08T12:40:33.730Z,354.38
2022-12-08T12:41:33.696Z,343.13
2022-12-08T12:42:33.671Z,337.50
2022-12-08T12:43:33.649Z,337.50
2022-12-08T12:44:33.628Z,331.88
2022-12-08T12:45:33.593Z,326.25
2022-12-08T12:46:33.674Z,320.63
2022-12-08T12:47:33.552Z,320.63
2022-12-08T12:48:33.529Z,326.25
2022-12-08T12:49:33.519Z,315.00
2022-12-08T12:50:33.723Z,309.38
2022-12-08T12:51:33.449Z,303.75
2022-12-08T12:52:33.471Z,298.13
2022-12-08T12:53:33.564Z,298.13
2022-12-08T12:54:33.387Z,303.75
2022-12-08T12:55:33.353Z,303.75
2022-12-08T12:56:33.356Z,303.75
2022-12-08T12:57:33.301Z,303.75
2022-12-08T12:58:33.291Z,303.75
2022-12-08T12:59:33.265Z,303.75
2022-12-08T13:00:33.250Z,303.75
2022-12-08T13:01:33.272Z,309.38
2022-12-08T13:02:33.325Z,298.13
2022-12-08T13:03:33.166Z,292.50
2022-12-08T13:04:33.131Z,286.88